CheckWX is a tool to help pilots better visualize weather data.  It is not intended as a substitute for an official pre-flight weather briefing.

17:30:03 UTC

NZAA METAR
Auckland International Airport
Auckland, New Zealand
Current

30 mins ago

NZAA 181700Z AUTO 16006KT 9999 NCD 04/02 Q1024 NOSIG
Observed
Aug-18 @ 17:00 UTC
Wind
  • 160° at 6 KTS
Visibility
10,000+ meters
Flight Rules
VFR
Cloud Levels
  • Clear skies
Temperature
C / 39°F
Dewpoint
C / 36°F
Humidity
87%
Altimeter
30.24" Hg
Pressure
1023.92 hPa
Previous

60 mins ago

NZAA 181630Z AUTO 15007KT 9999 NCD 05/02 Q1024 NOSIG
Observed
Aug-18 @ 16:30 UTC
Wind
  • 150° at 7 KTS
Visibility
10,000+ meters
Flight Rules
VFR
Cloud Levels
  • Clear skies
Temperature
C / 41°F
Dewpoint
C / 36°F
Humidity
81%
Altimeter
30.24" Hg
Pressure
1023.92 hPa
Previous

2 hours ago

NZAA 181600Z AUTO 15009KT 9999 NCD 05/02 Q1024 NOSIG
Observed
Aug-18 @ 16:00 UTC
Wind
  • 150° at 9 KTS
Visibility
10,000+ meters
Flight Rules
VFR
Cloud Levels
  • Clear skies
Temperature
C / 41°F
Dewpoint
C / 36°F
Humidity
81%
Altimeter
30.24" Hg
Pressure
1023.92 hPa